Time;durP1;ratioP1;P1;durP2;ratioP2;P2;SDS_P1;SDS_P2;PMS_P1;PMS_P2;Temp;Humidity;BMP_temperature;BMP_pressure;BME280_temperature;BME280_humidity;BME280_pressure;Samples;Min_cycle;Max_cycle;Signal;HPM_P1;HPM_P2
2023/05/24 00:01:49;;;;;;;5.30;2.63;;;15.40;99.90;;;;;;5097975;28;20254;-63
2023/05/24 00:04:17;;;;;;;3.38;2.65;;;15.40;99.90;;;;;;5098655;28;20215;-63
2023/05/24 00:06:47;;;;;;;7.75;2.72;;;15.40;99.90;;;;;;5098205;28;20214;-63
2023/05/24 00:09:14;;;;;;;7.18;2.88;;;15.40;99.90;;;;;;5097692;28;20704;-63
2023/05/24 00:11:40;;;;;;;6.25;2.35;;;15.40;99.90;;;;;;5097879;28;20204;-63
2023/05/24 00:14:07;;;;;;;4.63;2.90;;;15.40;99.90;;;;;;5098279;28;20208;-63
2023/05/24 00:16:35;;;;;;;4.60;2.65;;;15.30;99.90;;;;;;5098131;28;20208;-64
2023/05/24 00:19:02;;;;;;;5.10;2.78;;;15.30;99.90;;;;;;5097890;28;20238;-63
2023/05/24 00:21:30;;;;;;;6.40;2.70;;;15.30;99.90;;;;;;5097103;28;20712;-63
2023/05/24 00:23:59;;;;;;;4.07;2.27;;;15.40;99.90;;;;;;5097517;28;20586;-63
2023/05/24 00:26:26;;;;;;;6.30;2.93;;;15.30;99.90;;;;;;5096309;28;20240;-63
2023/05/24 00:28:52;;;;;;;5.20;2.23;;;15.30;99.90;;;;;;5096465;28;20223;-63
2023/05/24 00:31:19;;;;;;;5.87;2.70;;;15.30;99.90;;;;;;5096822;28;20207;-63
2023/05/24 00:33:46;;;;;;;7.37;2.77;;;15.30;99.90;;;;;;5097269;28;20207;-64
2023/05/24 00:36:13;;;;;;;5.77;2.70;;;15.40;99.90;;;;;;5097583;28;20211;-64
2023/05/24 00:38:39;;;;;;;5.63;2.60;;;15.40;99.90;;;;;;5097815;28;20232;-63
2023/05/24 00:41:07;;;;;;;4.05;2.58;;;15.40;99.90;;;;;;5098516;28;20204;-63
2023/05/24 00:43:35;;;;;;;6.37;2.50;;;15.40;99.90;;;;;;5096898;28;20204;-63
2023/05/24 00:46:17;;;;;;;8.37;3.10;;;15.40;99.90;;;;;;5096864;28;20669;-64
2023/05/24 00:48:45;;;;;;;4.90;2.60;;;15.30;99.90;;;;;;5096725;28;20236;-63
2023/05/24 00:51:13;;;;;;;6.30;2.50;;;15.20;99.90;;;;;;5096358;28;20223;-64
2023/05/24 00:53:41;;;;;;;6.80;2.90;;;15.20;99.90;;;;;;5096713;28;20208;-63
2023/05/24 00:56:09;;;;;;;7.32;2.55;;;15.10;99.90;;;;;;5097019;28;20208;-64
2023/05/24 00:58:36;;;;;;;9.93;2.70;;;15.00;99.90;;;;;;5096746;28;20228;-63
2023/05/24 01:01:04;;;;;;;5.03;2.57;;;14.90;99.90;;;;;;5098123;28;20208;-64
2023/05/24 01:03:32;;;;;;;4.73;2.80;;;14.80;99.90;;;;;;5097419;28;20208;-63
2023/05/24 01:06:01;;;;;;;6.27;2.80;;;14.70;99.90;;;;;;5097772;28;20271;-63
2023/05/24 01:08:46;;;;;;;7.10;2.53;;;14.60;99.90;;;;;;5098254;28;20611;-63
2023/05/24 01:11:21;;;;;;;5.37;2.63;;;14.40;99.90;;;;;;5098833;28;20656;-63
2023/05/24 01:13:58;;;;;;;7.47;2.60;;;14.30;99.90;;;;;;5099299;28;20261;-62
2023/05/24 01:16:32;;;;;;;8.97;2.90;;;14.20;99.90;;;;;;5099461;28;20675;-63
2023/05/24 01:19:05;;;;;;;8.07;2.90;;;14.20;99.90;;;;;;5098573;28;20247;-62
2023/05/24 01:21:54;;;;;;;6.70;2.90;;;14.10;99.90;;;;;;5097361;28;20216;-62
2023/05/24 01:24:30;;;;;;;4.67;2.63;;;14.00;99.90;;;;;;5097349;28;20224;-63
2023/05/24 01:27:07;;;;;;;9.63;3.30;;;13.90;99.90;;;;;;5096643;28;20207;-62
2023/05/24 01:29:35;;;;;;;6.73;2.87;;;13.90;99.90;;;;;;5095636;28;20285;-61
2023/05/24 01:32:02;;;;;;;9.57;3.67;;;13.90;99.90;;;;;;5095591;28;20204;-62
2023/05/24 01:34:29;;;;;;;6.07;3.10;;;13.90;99.90;;;;;;5095922;28;20219;-62
2023/05/24 01:36:55;;;;;;;10.27;3.63;;;13.80;99.90;;;;;;5095288;28;20659;-62
2023/05/24 01:39:25;;;;;;;6.97;2.67;;;13.70;99.90;;;;;;5094120;28;20235;-62
2023/05/24 01:42:05;;;;;;;6.77;2.77;;;13.70;99.90;;;;;;5095449;28;20204;-63
2023/05/24 01:44:38;;;;;;;7.00;3.00;;;13.80;99.90;;;;;;5095802;28;20208;-63
2023/05/24 01:47:16;;;;;;;6.03;2.80;;;13.80;99.90;;;;;;5095524;28;20295;-63
2023/05/24 01:49:49;;;;;;;10.10;3.70;;;13.70;99.90;;;;;;5094365;28;20223;-62
2023/05/24 01:52:19;;;;;;;7.10;3.00;;;13.60;99.90;;;;;;5094381;28;20204;-62
2023/05/24 01:54:51;;;;;;;6.63;3.00;;;13.60;99.90;;;;;;5094811;28;20204;-63
2023/05/24 01:57:20;;;;;;;5.80;2.93;;;13.60;99.90;;;;;;5094529;28;20265;-63
2023/05/24 01:59:49;;;;;;;8.30;3.20;;;13.60;99.90;;;;;;5094906;28;20315;-62
2023/05/24 02:02:15;;;;;;;8.93;3.30;;;13.40;99.90;;;;;;5094622;28;20204;-62
2023/05/24 02:04:43;;;;;;;8.23;3.63;;;13.30;99.90;;;;;;5095237;28;20597;-62
2023/05/24 02:07:10;;;;;;;7.90;3.47;;;13.20;99.90;;;;;;5095221;28;20207;-63
2023/05/24 02:09:36;;;;;;;6.37;3.27;;;13.10;99.90;;;;;;5094607;28;20269;-62
2023/05/24 02:12:03;;;;;;;8.77;3.77;;;13.10;99.90;;;;;;5094807;28;20205;-62
2023/05/24 02:14:30;;;;;;;6.73;3.20;;;13.10;99.90;;;;;;5095798;28;20200;-62
2023/05/24 02:16:59;;;;;;;8.90;3.37;;;13.10;99.90;;;;;;5095891;28;20408;-63
2023/05/24 02:19:26;;;;;;;8.00;3.37;;;13.10;99.90;;;;;;5095108;28;20235;-62
2023/05/24 02:21:53;;;;;;;8.30;3.43;;;13.10;99.90;;;;;;5094778;28;20201;-62
2023/05/24 02:24:20;;;;;;;9.07;3.47;;;13.20;99.90;;;;;;5094704;28;20215;-63
2023/05/24 02:26:47;;;;;;;7.00;3.37;;;13.40;99.90;;;;;;5095043;28;20200;-64
2023/05/24 02:29:14;;;;;;;6.73;3.17;;;13.50;99.90;;;;;;5096232;28;20224;-63
2023/05/24 02:31:41;;;;;;;10.37;4.43;;;13.60;99.90;;;;;;5095582;28;20311;-63
2023/05/24 02:34:09;;;;;;;7.93;3.43;;;13.60;99.90;;;;;;5095562;28;20206;-63
2023/05/24 02:36:36;;;;;;;9.13;3.50;;;13.70;99.90;;;;;;5095200;28;20299;-63
2023/05/24 02:39:03;;;;;;;8.10;3.87;;;13.70;99.90;;;;;;5095379;28;20224;-64
2023/05/24 02:41:30;;;;;;;8.00;3.37;;;13.70;99.90;;;;;;5095316;28;20230;-63
2023/05/24 02:43:57;;;;;;;10.43;3.90;;;13.70;99.90;;;;;;5094956;28;20215;-63
2023/05/24 02:46:24;;;;;;;6.37;3.07;;;13.70;99.90;;;;;;5094415;28;20210;-63
2023/05/24 02:48:50;;;;;;;8.53;3.30;;;13.70;99.90;;;;;;5095090;28;20224;-63
2023/05/24 02:51:18;;;;;;;8.87;3.90;;;13.60;99.90;;;;;;5097873;28;20562;-63
2023/05/24 02:53:45;;;;;;;9.20;3.40;;;13.70;99.90;;;;;;5098524;28;20209;-63
2023/05/24 02:56:12;;;;;;;7.97;3.60;;;13.70;99.90;;;;;;5098663;28;20211;-63
2023/05/24 02:58:40;;;;;;;7.77;3.20;;;13.70;99.90;;;;;;5098300;28;20228;-68
2023/05/24 03:01:07;;;;;;;9.10;3.47;;;13.70;99.90;;;;;;5098789;28;20215;-63
2023/05/24 03:03:34;;;;;;;6.20;3.50;;;13.70;99.90;;;;;;5098859;28;20204;-62
2023/05/24 03:06:01;;;;;;;7.60;3.77;;;13.70;99.90;;;;;;5099139;28;20234;-63
2023/05/24 03:08:29;;;;;;;8.53;3.30;;;13.70;99.90;;;;;;5099835;28;20283;-63
2023/05/24 03:10:56;;;;;;;9.53;3.30;;;13.60;99.90;;;;;;5099151;28;20282;-63
2023/05/24 03:13:23;;;;;;;9.20;3.30;;;13.50;99.90;;;;;;5098881;28;20236;-62
2023/05/24 03:15:50;;;;;;;6.07;3.30;;;13.40;99.90;;;;;;5099312;28;20204;-63
2023/05/24 03:18:17;;;;;;;7.73;3.57;;;13.40;99.90;;;;;;5099469;28;20208;-63
2023/05/24 03:20:43;;;;;;;8.43;3.30;;;13.20;99.90;;;;;;5099663;28;20204;-63
2023/05/24 03:23:10;;;;;;;7.70;3.80;;;13.20;99.90;;;;;;5098613;28;20212;-62
2023/05/24 03:25:38;;;;;;;10.97;3.93;;;13.10;99.90;;;;;;5098611;28;20204;-62
2023/05/24 03:28:05;;;;;;;7.23;3.43;;;13.10;99.90;;;;;;5098702;28;20212;-62
2023/05/24 03:30:32;;;;;;;6.17;3.20;;;13.00;99.90;;;;;;5098254;28;20234;-63
2023/05/24 03:33:00;;;;;;;7.47;3.33;;;13.00;99.90;;;;;;5098830;28;20205;-63
2023/05/24 03:35:26;;;;;;;7.03;3.20;;;12.90;99.90;;;;;;5098299;28;20578;-63
2023/05/24 03:37:53;;;;;;;6.80;3.50;;;12.90;99.90;;;;;;5099150;28;20227;-62
2023/05/24 03:40:20;;;;;;;7.90;3.83;;;12.90;99.90;;;;;;5097929;28;20228;-62
2023/05/24 03:42:48;;;;;;;9.70;3.60;;;13.00;99.90;;;;;;5098822;28;20208;-63
2023/05/24 03:45:15;;;;;;;6.20;3.60;;;13.00;99.90;;;;;;5098940;28;20208;-63
2023/05/24 03:47:41;;;;;;;11.40;4.27;;;13.00;99.90;;;;;;5097878;28;20711;-63
2023/05/24 03:50:09;;;;;;;9.00;3.93;;;13.10;99.90;;;;;;5097775;28;20220;-63
2023/05/24 03:52:36;;;;;;;6.80;3.60;;;13.10;99.90;;;;;;5098257;28;20240;-63
2023/05/24 03:55:03;;;;;;;8.70;3.20;;;13.10;99.90;;;;;;5099217;28;20216;-63
2023/05/24 03:57:29;;;;;;;8.40;3.53;;;13.10;99.90;;;;;;5098457;28;20204;-63
2023/05/24 03:59:59;;;;;;;7.97;3.40;;;13.10;99.90;;;;;;5099022;28;20235;-63
2023/05/24 04:02:25;;;;;;;7.93;3.53;;;13.10;99.90;;;;;;5097510;28;20220;-63
2023/05/24 04:04:53;;;;;;;7.37;3.57;;;13.10;99.90;;;;;;5099107;28;20203;-62
2023/05/24 04:07:23;;;;;;;11.27;3.90;;;13.10;99.90;;;;;;5099222;28;20208;-62
2023/05/24 04:09:50;;;;;;;11.00;3.80;;;13.10;99.90;;;;;;5098453;28;20231;-63
2023/05/24 04:12:16;;;;;;;7.93;3.73;;;13.10;99.90;;;;;;5098719;28;20204;-63
2023/05/24 04:14:43;;;;;;;9.47;3.30;;;13.20;99.90;;;;;;5099412;28;20274;-63
2023/05/24 04:17:11;;;;;;;9.17;3.73;;;13.20;99.90;;;;;;5099579;28;20208;-63
2023/05/24 04:19:38;;;;;;;11.50;3.73;;;13.30;99.90;;;;;;5097819;28;20326;-62
2023/05/24 04:22:05;;;;;;;11.20;3.73;;;13.30;99.90;;;;;;5098334;28;20201;-63
2023/05/24 04:24:32;;;;;;;10.77;3.83;;;13.20;99.90;;;;;;5099000;28;20582;-63
2023/05/24 04:26:58;;;;;;;8.93;3.70;;;13.20;99.90;;;;;;5099301;28;20208;-63
2023/05/24 04:29:26;;;;;;;7.63;3.70;;;13.30;99.90;;;;;;5098852;28;20216;-63
2023/05/24 04:31:53;;;;;;;9.87;3.43;;;13.40;99.90;;;;;;5097660;28;20588;-63
2023/05/24 04:34:22;;;;;;;6.47;3.33;;;13.50;99.90;;;;;;5098668;28;20200;-63
2023/05/24 04:36:51;;;;;;;7.43;3.93;;;13.50;99.90;;;;;;5097612;28;20236;-63
2023/05/24 04:39:18;;;;;;;11.83;4.00;;;13.50;99.90;;;;;;5098059;28;20232;-63
2023/05/24 04:41:45;;;;;;;9.70;4.33;;;13.50;99.90;;;;;;5098245;28;20240;-62
2023/05/24 04:44:12;;;;;;;12.50;4.03;;;13.50;99.90;;;;;;5098258;28;20291;-63
2023/05/24 04:46:39;;;;;;;8.00;3.17;;;13.60;99.90;;;;;;5097652;28;20207;-62
2023/05/24 04:49:07;;;;;;;8.63;3.63;;;13.60;99.90;;;;;;5099044;28;20310;-62
2023/05/24 04:51:37;;;;;;;8.63;3.37;;;13.60;99.90;;;;;;5098200;28;20204;-64
2023/05/24 04:54:07;;;;;;;8.37;3.50;;;13.70;99.90;;;;;;5098042;28;20263;-62
2023/05/24 04:56:34;;;;;;;8.77;3.77;;;13.70;99.90;;;;;;5097511;28;20705;-63
2023/05/24 04:59:01;;;;;;;9.63;3.87;;;13.70;99.90;;;;;;5098425;28;20236;-63
2023/05/24 05:01:27;;;;;;;14.83;3.40;;;13.70;99.90;;;;;;5097434;28;20212;-63
2023/05/24 05:03:54;;;;;;;8.67;3.43;;;13.80;99.90;;;;;;5097994;28;20655;-63
2023/05/24 05:06:21;;;;;;;8.70;3.83;;;13.80;99.90;;;;;;5098864;28;20272;-63
2023/05/24 05:08:49;;;;;;;10.53;3.70;;;13.70;99.90;;;;;;5098658;28;20228;-63
2023/05/24 05:11:17;;;;;;;7.70;3.87;;;13.70;99.90;;;;;;5098794;28;20267;-62
2023/05/24 05:13:44;;;;;;;10.90;4.73;;;13.70;99.90;;;;;;5097231;28;20295;-62
2023/05/24 05:16:11;;;;;;;6.67;3.50;;;13.70;99.90;;;;;;5096400;28;20219;-62
2023/05/24 05:18:37;;;;;;;9.37;3.50;;;13.80;99.90;;;;;;5096434;28;20228;-62
2023/05/24 05:21:05;;;;;;;6.93;3.23;;;13.80;99.90;;;;;;5096186;28;20231;-62
2023/05/24 05:23:31;;;;;;;11.80;3.80;;;13.80;99.90;;;;;;5096946;28;20207;-61
2023/05/24 05:26:00;;;;;;;10.80;3.83;;;13.70;99.90;;;;;;5098437;28;20215;-61
2023/05/24 05:28:27;;;;;;;11.57;3.23;;;13.70;99.90;;;;;;5095932;28;20204;-62
2023/05/24 05:30:55;;;;;;;9.43;3.70;;;13.90;99.90;;;;;;5096448;28;20200;-62
2023/05/24 05:33:22;;;;;;;10.07;3.23;;;14.00;99.90;;;;;;5096877;28;20200;-62
2023/05/24 05:35:49;;;;;;;12.57;3.77;;;14.10;99.90;;;;;;5096803;28;20204;-62
2023/05/24 05:38:16;;;;;;;6.67;2.93;;;14.10;99.90;;;;;;5096417;28;20232;-62
2023/05/24 05:40:42;;;;;;;15.53;5.73;;;14.20;99.90;;;;;;5096261;28;20591;-61
2023/05/24 05:43:10;;;;;;;11.23;4.63;;;14.30;99.90;;;;;;5096790;28;20698;-62
2023/05/24 05:45:37;;;;;;;8.97;3.37;;;14.40;99.90;;;;;;5096063;28;20230;-62
2023/05/24 05:48:04;;;;;;;7.13;3.10;;;14.70;99.90;;;;;;5096632;28;20201;-62
2023/05/24 05:50:31;;;;;;;7.70;3.27;;;14.70;99.90;;;;;;5095285;28;20228;-62
2023/05/24 05:52:57;;;;;;;10.30;4.10;;;14.70;99.90;;;;;;5095528;28;20691;-62
2023/05/24 05:55:24;;;;;;;4.87;2.93;;;14.70;99.90;;;;;;5095487;28;20211;-61
2023/05/24 05:57:51;;;;;;;9.77;3.30;;;14.70;99.90;;;;;;5095531;28;20243;-61
2023/05/24 06:00:21;;;;;;;8.53;3.33;;;14.80;99.90;;;;;;5095714;28;20235;-62
2023/05/24 06:02:48;;;;;;;12.23;3.33;;;14.90;99.90;;;;;;5095786;28;20208;-61
2023/05/24 06:05:14;;;;;;;6.83;3.40;;;15.00;99.90;;;;;;5095714;28;20204;-61
2023/05/24 06:07:41;;;;;;;10.13;3.73;;;15.00;99.90;;;;;;5095534;28;20215;-62
2023/05/24 06:10:08;;;;;;;10.70;4.00;;;15.00;99.90;;;;;;5095519;28;20230;-62
2023/05/24 06:12:36;;;;;;;10.27;3.30;;;15.00;99.90;;;;;;5096067;28;20208;-63
2023/05/24 06:15:05;;;;;;;7.83;3.00;;;15.20;99.90;;;;;;5096181;28;20261;-63
2023/05/24 06:17:34;;;;;;;9.50;3.20;;;15.20;99.90;;;;;;5096051;28;20230;-62
2023/05/24 06:20:05;;;;;;;6.97;3.17;;;15.30;99.90;;;;;;5095592;28;20228;-63
2023/05/24 06:22:31;;;;;;;7.80;3.20;;;15.30;99.90;;;;;;5095562;28;20204;-63
2023/05/24 06:24:58;;;;;;;9.00;3.40;;;15.40;99.90;;;;;;5097386;28;20287;-63
2023/05/24 06:27:25;;;;;;;5.77;3.20;;;15.40;99.90;;;;;;5100068;28;20208;-63
2023/05/24 06:29:52;;;;;;;8.40;4.03;;;15.50;99.90;;;;;;5099650;28;20220;-63
2023/05/24 06:32:18;;;;;;;10.33;3.43;;;15.50;99.90;;;;;;5099444;28;20204;-63
2023/05/24 06:34:46;;;;;;;8.30;3.30;;;15.50;99.90;;;;;;5099013;28;20663;-63
2023/05/24 06:37:14;;;;;;;8.50;2.90;;;15.40;99.90;;;;;;5098478;28;20295;-63
2023/05/24 06:39:41;;;;;;;7.57;3.10;;;15.50;99.90;;;;;;5098796;28;20224;-63
2023/05/24 06:42:08;;;;;;;7.97;2.93;;;15.50;99.90;;;;;;5099299;28;20211;-63
2023/05/24 06:44:35;;;;;;;8.27;3.10;;;15.40;99.90;;;;;;5098955;28;20667;-62
2023/05/24 06:47:02;;;;;;;8.13;3.27;;;15.30;99.90;;;;;;5099372;28;20223;-62
2023/05/24 06:49:28;;;;;;;8.95;3.53;;;15.20;99.90;;;;;;5099364;28;20228;-63
2023/05/24 06:51:57;;;;;;;9.17;3.20;;;15.20;99.90;;;;;;5099607;28;20208;-62
2023/05/24 06:54:24;;;;;;;8.23;3.43;;;15.30;99.90;;;;;;5098757;28;20211;-62
2023/05/24 06:56:51;;;;;;;8.50;3.40;;;15.30;99.90;;;;;;5098330;28;20212;-62
2023/05/24 06:59:18;;;;;;;8.70;3.23;;;15.20;99.90;;;;;;5099060;28;20228;-62
2023/05/24 07:01:44;;;;;;;6.57;3.00;;;15.20;99.90;;;;;;5079733;28;20235;-62
2023/05/24 07:04:11;;;;;;;7.70;3.30;;;15.20;99.90;;;;;;5077627;28;20212;-62
2023/05/24 07:06:38;;;;;;;11.13;3.43;;;15.10;99.90;;;;;;5077700;28;20209;-62
2023/05/24 07:09:06;;;;;;;9.97;3.20;;;15.10;99.90;;;;;;5077663;28;20225;-62
2023/05/24 07:11:33;;;;;;;12.23;4.00;;;15.20;99.90;;;;;;5078367;28;20204;-62
2023/05/24 07:14:00;;;;;;;7.70;3.40;;;15.30;99.90;;;;;;5078737;28;20291;-62
2023/05/24 07:16:26;;;;;;;9.67;3.47;;;15.20;99.90;;;;;;5080532;28;20224;-62
2023/05/24 07:18:55;;;;;;;9.27;3.23;;;15.20;99.90;;;;;;5079463;28;20244;-62
2023/05/24 07:21:22;;;;;;;10.87;3.20;;;15.20;99.90;;;;;;5077595;28;20240;-63
2023/05/24 07:23:50;;;;;;;7.30;3.07;;;15.30;99.90;;;;;;5077345;28;20209;-63
2023/05/24 07:26:18;;;;;;;10.95;2.83;;;15.30;99.90;;;;;;5077235;28;20684;-61
2023/05/24 07:28:45;;;;;;;11.03;3.10;;;15.40;99.90;;;;;;5078551;28;20239;-66
2023/05/24 07:31:12;;;;;;;11.35;2.88;;;15.30;99.90;;;;;;5078957;28;20228;-62
2023/05/24 07:33:39;;;;;;;11.18;3.45;;;15.40;99.90;;;;;;5078748;28;20219;-63
2023/05/24 07:36:07;;;;;;;13.05;3.45;;;15.70;99.90;;;;;;5078612;28;20692;-64
2023/05/24 07:38:34;;;;;;;8.20;3.40;;;16.00;99.90;;;;;;5078364;28;20230;-64
2023/05/24 07:41:03;;;;;;;7.65;3.38;;;16.00;99.90;;;;;;5078293;28;20228;-65
2023/05/24 07:43:31;;;;;;;9.38;3.17;;;16.00;99.90;;;;;;5077323;28;20211;-61
2023/05/24 07:45:58;;;;;;;8.07;3.53;;;16.10;99.90;;;;;;5078138;28;20699;-62
2023/05/24 07:48:25;;;;;;;8.65;3.15;;;16.20;99.90;;;;;;5080089;28;20308;-64
2023/05/24 07:50:53;;;;;;;11.07;3.20;;;16.20;99.90;;;;;;5079471;28;20295;-63
2023/05/24 07:53:21;;;;;;;7.90;2.95;;;16.10;99.90;;;;;;5078271;28;20692;-63
2023/05/24 07:55:49;;;;;;;8.95;3.28;;;15.70;99.90;;;;;;5079458;28;20213;-64
2023/05/24 07:58:16;;;;;;;5.20;2.78;;;15.50;99.90;;;;;;5078463;28;20205;-64
2023/05/24 08:00:45;;;;;;;12.75;3.95;;;15.40;99.90;;;;;;5079081;28;20335;-65
2023/05/24 08:03:13;;;;;;;10.32;3.45;;;15.50;99.90;;;;;;5078913;28;20213;-64
2023/05/24 08:05:40;;;;;;;11.38;3.60;;;15.50;99.90;;;;;;5077650;28;20205;-65
2023/05/24 08:08:08;;;;;;;9.52;3.17;;;15.50;99.90;;;;;;5077064;28;20734;-63
2023/05/24 08:10:35;;;;;;;8.07;3.17;;;15.50;99.90;;;;;;5078661;28;20224;-63
2023/05/24 08:13:03;;;;;;;11.63;3.60;;;15.50;99.90;;;;;;5078036;28;20213;-63
2023/05/24 08:15:30;;;;;;;9.77;3.28;;;15.60;99.90;;;;;;5079697;28;20277;-64
2023/05/24 08:17:58;;;;;;;9.52;3.30;;;15.70;99.90;;;;;;5079712;28;20204;-63
2023/05/24 08:20:25;;;;;;;7.72;2.85;;;15.60;99.90;;;;;;5078841;28;20271;-62
2023/05/24 08:22:52;;;;;;;14.70;3.50;;;15.70;99.90;;;;;;5079430;28;20204;-63
2023/05/24 08:25:19;;;;;;;9.60;2.88;;;15.90;99.90;;;;;;5079213;28;20695;-62
2023/05/24 08:27:46;;;;;;;8.30;3.20;;;16.10;99.90;;;;;;5079137;28;20205;-65
2023/05/24 08:30:14;;;;;;;10.85;3.10;;;16.40;99.90;;;;;;5078685;28;20278;-64
2023/05/24 08:32:41;;;;;;;7.63;3.28;;;16.60;99.90;;;;;;5078693;28;20261;-62
2023/05/24 08:35:09;;;;;;;8.77;3.00;;;17.00;99.90;;;;;;5077524;28;20205;-65
2023/05/24 08:37:36;;;;;;;7.65;2.63;;;17.30;99.90;;;;;;5075496;28;20272;-65
2023/05/24 08:40:04;;;;;;;9.05;3.13;;;17.50;99.90;;;;;;5077550;28;20712;-67
2023/05/24 08:42:31;;;;;;;8.85;3.33;;;17.60;99.90;;;;;;5078419;28;20212;-66
2023/05/24 08:45:04;;;;;;;8.45;3.50;;;17.70;99.90;;;;;;5077797;28;20295;-64
2023/05/24 08:47:32;;;;;;;10.25;3.75;;;17.90;99.90;;;;;;5076161;28;20630;-64
2023/05/24 08:49:59;;;;;;;11.20;3.47;;;18.20;99.90;;;;;;5077664;28;20235;-64
2023/05/24 08:52:29;;;;;;;10.80;3.17;;;18.10;99.90;;;;;;5076934;28;20209;-64
2023/05/24 08:54:56;;;;;;;10.25;3.80;;;17.90;99.90;;;;;;5077489;28;20201;-63
2023/05/24 08:57:24;;;;;;;8.50;3.45;;;17.50;99.90;;;;;;5077117;28;20425;-64
2023/05/24 08:59:52;;;;;;;8.32;3.40;;;17.30;99.90;;;;;;5075917;28;20225;-64
2023/05/24 09:02:19;;;;;;;9.90;3.63;;;17.40;99.90;;;;;;5076139;28;20299;-65
2023/05/24 09:04:49;;;;;;;11.35;3.70;;;17.50;99.90;;;;;;5076029;28;20266;-63
2023/05/24 09:07:18;;;;;;;10.52;3.53;;;17.50;99.90;;;;;;5075305;28;20307;-64
2023/05/24 09:09:50;;;;;;;8.63;3.58;;;17.40;99.90;;;;;;5076209;28;20224;-64
2023/05/24 09:12:21;;;;;;;9.77;3.17;;;17.00;99.90;;;;;;5076151;28;20197;-64
2023/05/24 09:14:48;;;;;;;11.98;3.45;;;16.90;99.90;;;;;;5076669;28;20633;-64
2023/05/24 09:17:14;;;;;;;7.03;3.30;;;16.90;99.90;;;;;;5076080;28;20551;-64
2023/05/24 09:19:45;;;;;;;10.63;3.65;;;16.90;99.90;;;;;;5076850;28;20267;-65
2023/05/24 09:22:14;;;;;;;8.13;3.15;;;16.90;99.90;;;;;;5076559;28;20232;-64
2023/05/24 09:24:41;;;;;;;11.30;3.58;;;17.00;99.90;;;;;;5076401;28;20268;-63
2023/05/24 09:27:10;;;;;;;11.23;4.20;;;17.10;99.90;;;;;;5076652;28;20205;-63
2023/05/24 09:29:37;;;;;;;11.30;3.58;;;17.20;99.90;;;;;;5076260;28;20231;-62
2023/05/24 09:32:07;;;;;;;10.40;4.15;;;17.10;99.90;;;;;;5076781;28;20216;-63
2023/05/24 09:34:39;;;;;;;14.10;6.57;;;17.00;99.90;;;;;;5076118;28;20262;-63
2023/05/24 09:37:06;;;;;;;9.88;3.15;;;16.90;99.90;;;;;;5076471;28;20201;-63
2023/05/24 09:39:33;;;;;;;9.57;3.50;;;16.80;99.90;;;;;;5076001;28;20713;-63
2023/05/24 09:42:00;;;;;;;8.43;3.40;;;16.70;99.90;;;;;;5075407;28;20225;-63
2023/05/24 09:44:28;;;;;;;10.20;4.18;;;16.60;99.90;;;;;;5074811;28;20205;-62
2023/05/24 09:47:03;;;;;;;9.90;3.42;;;16.50;99.90;;;;;;5075887;28;20220;-63
2023/05/24 09:49:30;;;;;;;8.68;3.58;;;16.40;99.90;;;;;;5075943;28;20230;-63
2023/05/24 09:51:57;;;;;;;12.05;3.55;;;16.40;99.90;;;;;;5075152;28;20220;-63
2023/05/24 09:54:25;;;;;;;6.65;3.65;;;16.40;99.90;;;;;;5075057;28;20221;-64
2023/05/24 09:56:52;;;;;;;10.40;4.82;;;16.40;99.90;;;;;;5074659;28;20672;-64
2023/05/24 09:59:19;;;;;;;9.50;3.13;;;16.50;99.90;;;;;;5073976;28;20231;-63
2023/05/24 10:01:52;;;;;;;9.85;3.65;;;16.40;99.90;;;;;;5078923;28;20235;-64
2023/05/24 10:04:19;;;;;;;9.45;3.72;;;16.20;99.90;;;;;;5078853;28;20210;-64
2023/05/24 10:06:47;;;;;;;7.90;3.20;;;16.00;99.90;;;;;;5078637;28;20212;-64
2023/05/24 10:09:14;;;;;;;9.98;3.47;;;15.90;99.90;;;;;;5078254;28;20236;-64
2023/05/24 10:11:41;;;;;;;11.35;3.58;;;16.10;99.90;;;;;;5078660;28;20211;-63
2023/05/24 10:14:10;;;;;;;8.82;3.22;;;16.10;99.90;;;;;;5078244;28;20262;-64
2023/05/24 10:16:36;;;;;;;11.52;3.78;;;16.30;99.90;;;;;;5078427;28;20240;-64
2023/05/24 10:19:05;;;;;;;11.85;4.35;;;16.40;99.90;;;;;;5078265;28;20229;-64
2023/05/24 10:21:36;;;;;;;10.52;3.83;;;16.30;99.90;;;;;;5078305;28;20715;-64
2023/05/24 10:24:06;;;;;;;8.65;3.42;;;16.20;99.90;;;;;;5077587;28;20204;-64
2023/05/24 10:26:35;;;;;;;11.93;7.40;;;16.40;99.90;;;;;;5078050;28;20216;-64
2023/05/24 10:29:06;;;;;;;9.65;3.95;;;16.70;99.90;;;;;;5078091;28;20229;-64
2023/05/24 10:31:37;;;;;;;9.90;3.70;;;16.80;99.90;;;;;;5077910;28;20200;-64
2023/05/24 10:34:07;;;;;;;9.63;3.92;;;16.90;99.90;;;;;;5076873;28;20205;-62
2023/05/24 10:36:35;;;;;;;9.68;3.72;;;17.00;99.90;;;;;;5077803;28;20213;-63
2023/05/24 10:39:02;;;;;;;10.63;3.70;;;17.30;99.90;;;;;;5077854;28;20291;-63
2023/05/24 10:41:29;;;;;;;9.73;3.72;;;17.50;99.90;;;;;;5077899;28;20286;-64
2023/05/24 10:43:57;;;;;;;10.90;3.88;;;17.50;99.90;;;;;;5077687;28;20802;-64
2023/05/24 10:46:24;;;;;;;8.48;3.35;;;17.50;99.90;;;;;;5077580;28;20212;-64
2023/05/24 10:49:01;;;;;;;7.90;3.10;;;17.40;99.90;;;;;;5078082;28;20243;-64
2023/05/24 10:51:33;;;;;;;10.93;3.53;;;17.60;99.90;;;;;;5077547;28;20223;-64
2023/05/24 10:54:18;;;;;;;8.90;4.03;;;17.60;99.90;;;;;;5077822;28;20274;-64
2023/05/24 10:56:47;;;;;;;11.35;3.50;;;17.80;99.90;;;;;;5076088;28;20308;-63
2023/05/24 10:59:36;;;;;;;7.95;3.20;;;18.20;99.90;;;;;;5077791;28;20261;-64
2023/05/24 11:02:04;;;;;;;11.43;3.58;;;18.60;99.90;;;;;;5078132;28;20443;-64
2023/05/24 11:04:33;;;;;;;13.80;3.75;;;18.70;99.90;;;;;;5077412;28;20213;-64
2023/05/24 11:07:04;;;;;;;10.35;3.50;;;18.80;99.90;;;;;;5078328;28;20585;-64
2023/05/24 11:09:32;;;;;;;8.75;3.38;;;18.90;99.90;;;;;;5077799;28;20235;-64
2023/05/24 11:12:03;;;;;;;10.52;3.58;;;19.00;99.90;;;;;;5077304;28;20303;-64
2023/05/24 11:14:31;;;;;;;8.93;3.50;;;19.10;99.90;;;;;;5077401;28;20284;-63
2023/05/24 11:17:00;;;;;;;4.60;3.15;;;19.30;99.30;;;;;;5077671;28;20744;-65
2023/05/24 11:19:32;;;;;;;9.65;3.53;;;19.80;99.30;;;;;;5078238;28;20280;-65
2023/05/24 11:22:00;;;;;;;10.38;3.85;;;20.30;98.60;;;;;;5077155;28;20248;-64
2023/05/24 11:24:29;;;;;;;10.13;3.38;;;20.10;97.50;;;;;;5077401;28;20732;-64
2023/05/24 11:26:56;;;;;;;7.38;3.45;;;19.70;97.90;;;;;;5078043;28;20201;-63
2023/05/24 11:29:24;;;;;;;8.18;3.20;;;19.40;97.70;;;;;;5077884;28;20713;-64
2023/05/24 11:31:52;;;;;;;9.88;3.42;;;19.00;97.60;;;;;;5077850;28;20688;-64
2023/05/24 11:34:20;;;;;;;7.53;3.40;;;18.80;98.30;;;;;;5077285;28;20299;-64
2023/05/24 11:36:47;;;;;;;10.82;3.40;;;19.00;98.30;;;;;;5078203;28;20233;-65
2023/05/24 11:39:14;;;;;;;7.25;3.33;;;18.90;97.20;;;;;;5078478;28;20312;-65
2023/05/24 11:41:43;;;;;;;7.90;3.17;;;18.70;95.40;;;;;;5079506;28;20229;-64
2023/05/24 11:44:11;;;;;;;10.10;3.00;;;18.30;95.40;;;;;;5077936;28;20581;-64
2023/05/24 11:46:40;;;;;;;7.40;3.25;;;18.20;95.70;;;;;;5077505;28;20292;-64
2023/05/24 11:49:07;;;;;;;7.72;2.95;;;18.30;96.10;;;;;;5078519;28;20228;-64
2023/05/24 11:51:36;;;;;;;7.10;2.78;;;18.20;97.50;;;;;;5077425;28;20205;-65
2023/05/24 11:54:03;;;;;;;9.20;3.45;;;18.20;97.20;;;;;;5078364;28;20205;-64
2023/05/24 11:56:31;;;;;;;9.18;3.13;;;18.20;97.20;;;;;;5078652;28;20201;-64
2023/05/24 11:59:11;;;;;;;9.38;3.22;;;18.30;97.00;;;;;;5077420;28;20253;-64
2023/05/24 12:01:38;;;;;;;8.90;3.53;;;18.20;96.20;;;;;;5077104;28;20278;-64
2023/05/24 12:04:07;;;;;;;6.97;3.10;;;18.20;96.40;;;;;;5077174;28;20215;-64
2023/05/24 12:06:35;;;;;;;11.85;3.70;;;18.30;95.80;;;;;;5077239;28;20300;-64
2023/05/24 12:09:06;;;;;;;6.35;3.15;;;18.30;94.90;;;;;;5077049;28;20221;-65
2023/05/24 12:11:34;;;;;;;9.88;3.20;;;18.30;94.40;;;;;;5078164;28;20201;-65
2023/05/24 12:14:00;;;;;;;9.73;3.50;;;18.50;94.40;;;;;;5077758;28;20216;-65
2023/05/24 12:16:31;;;;;;;8.45;3.38;;;18.80;95.10;;;;;;5078040;28;20213;-64
2023/05/24 12:18:59;;;;;;;7.18;3.10;;;18.80;94.50;;;;;;5076951;28;20232;-64
2023/05/24 12:21:30;;;;;;;9.40;3.08;;;18.90;93.80;;;;;;5079804;28;20236;-64
2023/05/24 12:23:57;;;;;;;6.78;3.00;;;19.00;93.60;;;;;;5075957;28;20232;-64
2023/05/24 12:26:23;;;;;;;8.73;2.95;;;19.30;93.30;;;;;;5076159;28;20208;-66
2023/05/24 12:28:54;;;;;;;6.47;2.75;;;19.50;93.60;;;;;;5077366;28;20231;-65
2023/05/24 12:31:21;;;;;;;9.68;2.83;;;19.40;93.20;;;;;;5076253;28;20209;-64
2023/05/24 12:33:49;;;;;;;10.13;3.20;;;19.00;93.60;;;;;;5076683;28;20578;-64
2023/05/24 12:36:17;;;;;;;9.63;3.53;;;18.90;94.30;;;;;;5075831;28;20220;-63
2023/05/24 12:38:44;;;;;;;9.20;3.28;;;18.90;94.00;;;;;;5075951;28;20605;-65
2023/05/24 12:41:11;;;;;;;6.20;2.63;;;18.80;93.70;;;;;;5076340;28;20204;-64
2023/05/24 12:43:39;;;;;;;11.60;3.40;;;18.70;93.60;;;;;;5076851;28;20232;-65
2023/05/24 12:46:06;;;;;;;9.70;2.92;;;18.80;93.40;;;;;;5075941;28;20209;-67
2023/05/24 12:48:33;;;;;;;8.20;3.03;;;18.90;93.60;;;;;;5075559;28;20233;-66